Time;durP1;ratioP1;P1;durP2;ratioP2;P2;SDS_P1;SDS_P2;PMS_P1;PMS_P2;Temp;Humidity;BMP_temperature;BMP_pressure;BME280_temperature;BME280_humidity;BME280_pressure;Samples;Min_cycle;Max_cycle;Signal;HPM_P1;HPM_P2
2024/01/25 00:02:03;;;;;;;53.87;26.50;;;;;;;4.50;65.26;101680.50;5081937;28;20044;-75
2024/01/25 00:04:58;;;;;;;42.58;22.95;;;;;;;4.74;64.49;101677.28;5078120;28;20540;-75
2024/01/25 00:07:55;;;;;;;40.78;24.48;;;;;;;4.61;64.58;101687.66;5076297;28;20043;-76
2024/01/25 00:10:48;;;;;;;53.17;30.45;;;;;;;4.65;65.22;101681.50;5090758;28;20055;-76
2024/01/25 00:13:42;;;;;;;54.80;31.92;;;;;;;4.40;65.44;101683.88;5095749;28;20087;-77
2024/01/25 00:16:37;;;;;;;46.10;26.97;;;;;;;4.63;65.37;101670.16;5099155;28;20043;-76
2024/01/25 00:19:32;;;;;;;41.07;23.60;;;;;;;4.49;65.67;101662.72;5098606;28;20511;-76
2024/01/25 00:22:24;;;;;;;51.80;31.08;;;;;;;4.37;65.99;101662.84;5096216;28;20043;-76
2024/01/25 00:25:18;;;;;;;59.60;31.48;;;;;;;4.44;65.92;101665.34;5099517;28;20054;-76
2024/01/25 00:28:13;;;;;;;56.53;31.45;;;;;;;4.65;65.30;101656.44;5095549;28;20046;-77
2024/01/25 00:31:07;;;;;;;50.58;29.20;;;;;;;4.47;65.50;101662.16;5101159;28;20097;-77
2024/01/25 00:34:00;;;;;;;46.95;26.17;;;;;;;4.56;65.53;101661.47;5100033;28;20043;-79
2024/01/25 00:36:55;;;;;;;61.13;33.88;;;;;;;4.44;66.00;101673.41;5098346;28;20067;-77
2024/01/25 00:39:49;;;;;;;47.83;24.07;;;;;;;4.35;65.79;101670.38;5102052;28;20126;-78
2024/01/25 00:42:52;;;;;;;63.70;34.10;;;;;;;4.56;65.40;101679.50;5099097;28;20047;-76
2024/01/25 00:45:45;;;;;;;44.50;28.15;;;;;;;4.53;65.19;101666.53;5097009;28;20039;-78
2024/01/25 00:48:40;;;;;;;50.30;28.05;;;;;;;4.54;64.67;101678.94;5100485;28;20051;-77
2024/01/25 00:51:34;;;;;;;54.05;28.13;;;;;;;4.68;65.35;101672.91;5097540;28;20039;-78
2024/01/25 00:54:29;;;;;;;44.45;25.92;;;;;;;4.53;64.96;101674.59;5100172;28;20527;-78
2024/01/25 00:57:23;;;;;;;45.72;27.40;;;;;;;4.53;65.37;101663.84;5098733;28;20046;-77
2024/01/25 01:00:18;;;;;;;48.20;23.83;;;;;;;4.56;65.00;101668.72;5103224;28;20667;-76
2024/01/25 01:03:10;;;;;;;49.15;29.15;;;;;;;4.68;64.39;101666.69;5097221;28;20816;-77
2024/01/25 01:06:05;;;;;;;55.40;31.00;;;;;;;4.38;65.58;101671.72;5097040;28;20043;-77
2024/01/25 01:08:59;;;;;;;46.90;27.95;;;;;;;4.56;64.70;101674.94;5101557;28;20528;-76
2024/01/25 01:11:51;;;;;;;51.13;29.77;;;;;;;4.67;64.90;101675.88;5098903;28;20047;-78
2024/01/25 01:14:46;;;;;;;51.40;30.30;;;;;;;4.82;64.59;101676.03;5102845;28;20047;-78
2024/01/25 01:17:40;;;;;;;41.55;23.98;;;;;;;4.57;65.71;101678.44;5098188;28;20051;-79
2024/01/25 01:20:35;;;;;;;41.35;23.42;;;;;;;4.41;66.43;101676.63;5098843;28;20063;-79
2024/01/25 01:23:30;;;;;;;44.80;23.50;;;;;;;4.74;64.74;101671.91;5102369;28;20070;-77
2024/01/25 01:26:22;;;;;;;54.80;30.15;;;;;;;4.36;66.46;101671.19;5099389;28;20420;-78
2024/01/25 01:29:17;;;;;;;39.13;23.55;;;;;;;4.32;66.37;101673.53;5101919;28;20055;-78
2024/01/25 01:32:11;;;;;;;58.53;30.80;;;;;;;4.35;66.48;101667.66;5099943;28;20409;-77
2024/01/25 01:35:06;;;;;;;48.83;28.15;;;;;;;4.36;65.90;101669.31;5097143;28;20047;-77
2024/01/25 01:37:58;;;;;;;60.85;31.67;;;;;;;4.49;66.18;101658.16;5102022;28;20043;-78
2024/01/25 01:40:52;;;;;;;53.03;31.13;;;;;;;4.51;65.72;101657.91;5099690;28;20047;-78
2024/01/25 01:43:44;;;;;;;38.67;22.95;;;;;;;4.55;65.48;101661.72;5096500;28;20531;-77
2024/01/25 01:46:42;;;;;;;55.88;29.65;;;;;;;4.53;65.96;101659.25;5098032;28;20051;-78
2024/01/25 01:49:35;;;;;;;55.38;30.67;;;;;;;4.52;65.02;101660.31;5097469;28;20043;-77
2024/01/25 01:52:30;;;;;;;51.95;29.20;;;;;;;4.43;66.13;101666.41;5101045;28;20055;-78
2024/01/25 01:55:23;;;;;;;48.55;25.42;;;;;;;4.38;66.36;101642.94;5100285;28;20043;-79
2024/01/25 01:58:18;;;;;;;48.45;29.40;;;;;;;4.22;67.11;101647.31;5100723;28;20051;-77
2024/01/25 02:01:15;;;;;;;40.55;25.45;;;;;;;4.21;66.89;101643.00;5102820;28;20047;-77
2024/01/25 02:04:10;;;;;;;48.17;28.40;;;;;;;4.51;66.06;101630.97;5100375;28;20055;-77
2024/01/25 02:07:05;;;;;;;39.70;23.70;;;;;;;4.29;66.28;101639.06;5100977;28;20047;-77
2024/01/25 02:09:59;;;;;;;55.88;31.85;;;;;;;4.30;66.73;101646.88;5101728;28;20055;-77
2024/01/25 02:12:54;;;;;;;53.72;30.88;;;;;;;4.52;66.13;101646.06;5098234;28;20043;-77
2024/01/25 02:15:49;;;;;;;50.45;31.48;;;;;;;4.54;65.71;101643.91;5102093;28;20043;-76
2024/01/25 02:18:44;;;;;;;39.57;22.10;;;;;;;4.22;66.62;101644.63;5099060;28;20051;-76
2024/01/25 02:21:38;;;;;;;49.05;26.60;;;;;;;4.05;67.08;101643.88;5103437;28;20043;-77
2024/01/25 02:24:33;;;;;;;63.90;33.22;;;;;;;4.02;67.45;101643.53;5101487;28;20059;-76
2024/01/25 02:27:27;;;;;;;49.17;29.05;;;;;;;4.18;66.88;101640.78;5101613;28;20051;-77
2024/01/25 02:30:22;;;;;;;42.77;23.17;;;;;;;3.99;66.91;101639.47;5106042;28;20043;-79
2024/01/25 02:33:17;;;;;;;38.58;22.38;;;;;;;4.23;65.83;101626.59;5102340;28;20531;-76
2024/01/25 02:36:12;;;;;;;34.17;19.92;;;;;;;4.33;65.12;101626.72;5103055;28;20055;-77
2024/01/25 02:39:04;;;;;;;31.95;19.83;;;;;;;4.11;65.81;101634.81;5103320;28;20055;-75
2024/01/25 02:41:58;;;;;;;43.15;25.60;;;;;;;4.17;65.38;101644.53;5097895;28;20047;-76
2024/01/25 02:44:53;;;;;;;40.85;25.23;;;;;;;4.05;65.77;101633.09;5100674;28;20697;-78
2024/01/25 02:47:47;;;;;;;43.92;25.17;;;;;;;4.36;64.75;101638.88;5099292;28;20051;-77
2024/01/25 02:50:42;;;;;;;34.20;18.08;;;;;;;4.04;65.19;101647.63;5103014;28;20051;-77
2024/01/25 02:53:37;;;;;;;33.63;20.17;;;;;;;4.35;64.51;101632.66;5100004;28;20055;-77
2024/01/25 02:56:34;;;;;;;41.15;20.67;;;;;;;4.10;64.95;101635.88;5111425;28;20039;-77
2024/01/25 02:59:29;;;;;;;42.10;23.08;;;;;;;4.00;65.28;101627.66;5103228;28;20047;-76
2024/01/25 03:02:29;;;;;;;29.43;18.17;;;;;;;3.87;65.49;101628.00;5100987;28;20055;-77
2024/01/25 03:05:23;;;;;;;41.42;20.67;;;;;;;3.72;65.53;101619.72;5103007;28;20285;-76
2024/01/25 03:08:15;;;;;;;49.58;25.05;;;;;;;3.81;65.02;101628.97;5101447;28;20059;-78
2024/01/25 03:11:10;;;;;;;65.30;28.42;;;;;;;3.82;64.87;101625.25;5099040;28;20046;-77
2024/01/25 03:14:07;;;;;;;55.25;28.45;;;;;;;3.71;65.40;101634.22;5102219;28;20055;-76
2024/01/25 03:17:05;;;;;;;40.65;22.15;;;;;;;3.75;65.18;101613.84;5100083;28;20050;-76
2024/01/25 03:19:59;;;;;;;34.65;20.00;;;;;;;3.95;64.41;101613.31;5103480;28;20055;-77
2024/01/25 03:22:54;;;;;;;35.95;18.92;;;;;;;3.86;64.44;101623.66;5100890;28;20043;-77
2024/01/25 03:25:48;;;;;;;47.08;23.77;;;;;;;3.89;64.78;101625.88;5098679;28;20047;-77
2024/01/25 03:28:43;;;;;;;32.08;18.33;;;;;;;3.69;64.96;101625.59;5102047;28;20063;-77
2024/01/25 03:31:38;;;;;;;28.43;15.67;;;;;;;3.65;65.08;101627.97;5101487;28;20047;-76
2024/01/25 03:34:33;;;;;;;35.67;17.77;;;;;;;3.78;64.95;101632.19;5105095;28;20070;-76
2024/01/25 03:37:27;;;;;;;36.38;18.08;;;;;;;3.92;63.99;101622.69;5098042;28;20043;-77
2024/01/25 03:40:22;;;;;;;31.83;18.15;;;;;;;3.76;64.80;101628.91;5097318;28;20055;-76
2024/01/25 03:43:16;;;;;;;35.13;18.63;;;;;;;3.84;64.43;101623.94;5101851;28;20043;-77
2024/01/25 03:46:11;;;;;;;30.20;15.60;;;;;;;3.86;64.39;101623.66;5098195;28;20046;-77
2024/01/25 03:49:06;;;;;;;27.30;14.05;;;;;;;3.86;64.28;101619.09;5102555;28;20428;-75
2024/01/25 03:52:00;;;;;;;25.15;15.18;;;;;;;3.91;64.01;101612.19;5100769;28;20047;-77
2024/01/25 03:54:55;;;;;;;33.58;17.63;;;;;;;3.97;63.66;101609.31;5098227;28;20047;-76
2024/01/25 03:57:47;;;;;;;22.27;13.73;;;;;;;3.80;63.79;101600.47;5103915;28;20055;-77
2024/01/25 04:00:41;;;;;;;34.25;18.60;;;;;;;3.66;64.94;101609.94;5099236;28;20039;-78
2024/01/25 04:03:34;;;;;;;26.17;15.00;;;;;;;3.70;64.87;101613.78;5102746;28;20055;-76
2024/01/25 04:06:29;;;;;;;34.72;19.73;;;;;;;3.91;64.65;101602.25;5101655;28;20424;-77
2024/01/25 04:09:21;;;;;;;29.60;15.13;;;;;;;3.87;64.71;101598.41;5097769;28;20043;-76
2024/01/25 04:12:16;;;;;;;34.50;19.67;;;;;;;3.86;64.87;101594.09;5100059;28;20044;-76
2024/01/25 04:15:10;;;;;;;36.83;20.70;;;;;;;3.90;64.41;101599.78;5097503;28;20066;-77
2024/01/25 04:18:05;;;;;;;27.90;15.55;;;;;;;4.03;64.55;101605.63;5093241;28;20043;-77
2024/01/25 04:20:59;;;;;;;32.75;19.60;;;;;;;3.99;64.30;101604.50;5096162;28;20439;-76
2024/01/25 04:23:54;;;;;;;33.10;19.17;;;;;;;3.73;65.23;101603.34;5095178;28;20047;-77
2024/01/25 04:26:46;;;;;;;29.80;17.00;;;;;;;3.97;64.83;101593.16;5080541;28;20043;-77
2024/01/25 04:29:42;;;;;;;38.88;20.52;;;;;;;3.67;65.65;101596.25;5081663;28;20043;-78
2024/01/25 04:32:37;;;;;;;38.05;21.42;;;;;;;3.85;64.92;101597.84;5081398;28;20119;-78
2024/01/25 04:35:31;;;;;;;32.72;16.65;;;;;;;3.82;65.65;101591.09;5079627;28;20512;-78
2024/01/25 04:38:26;;;;;;;40.53;22.15;;;;;;;4.13;64.59;101588.78;5077274;28;20043;-75
2024/01/25 04:41:20;;;;;;;35.15;21.50;;;;;;;4.24;64.28;101590.53;5080902;28;20055;-77
2024/01/25 04:44:15;;;;;;;33.45;17.45;;;;;;;3.90;65.11;101595.22;5078625;28;20405;-76
2024/01/25 04:47:10;;;;;;;30.50;17.97;;;;;;;3.60;66.08;101589.44;5075808;28;20066;-78
2024/01/25 04:50:04;;;;;;;29.63;17.97;;;;;;;3.68;66.11;101595.19;5082683;28;20051;-79
2024/01/25 04:52:56;;;;;;;45.28;22.40;;;;;;;3.91;65.37;101591.50;5077050;28;20072;-77
2024/01/25 04:55:57;;;;;;;37.80;23.20;;;;;;;4.06;65.65;101601.63;5086921;28;20043;-75
2024/01/25 04:58:52;;;;;;;41.97;24.27;;;;;;;3.70;66.21;101605.72;5092927;28;20047;-76
2024/01/25 05:01:46;;;;;;;38.77;22.57;;;;;;;3.88;66.46;101608.09;5102844;28;20039;-78
2024/01/25 05:04:41;;;;;;;35.53;19.03;;;;;;;3.85;66.62;101611.31;5101089;28;20042;-76
2024/01/25 05:07:35;;;;;;;44.70;24.65;;;;;;;3.66;66.67;101616.13;5100704;28;20059;-79
2024/01/25 05:10:27;;;;;;;51.25;24.52;;;;;;;3.68;67.25;101613.22;5105141;28;20051;-77
2024/01/25 05:13:22;;;;;;;56.70;27.55;;;;;;;4.01;65.96;101612.31;5099327;28;20047;-78
2024/01/25 05:16:17;;;;;;;39.50;21.20;;;;;;;3.69;66.50;101612.97;5099400;28;20059;-77
2024/01/25 05:19:12;;;;;;;33.90;18.00;;;;;;;3.78;66.35;101613.34;5100752;28;20062;-77
2024/01/25 05:22:06;;;;;;;35.20;21.10;;;;;;;3.93;66.21;101610.88;5097196;28;20035;-78
2024/01/25 05:24:58;;;;;;;53.95;24.65;;;;;;;3.95;65.83;101608.75;5102339;28;20047;-78
2024/01/25 05:27:53;;;;;;;46.33;24.90;;;;;;;3.56;66.55;101615.16;5099684;28;20058;-78
2024/01/25 05:30:47;;;;;;;48.20;28.27;;;;;;;3.74;67.32;101621.13;5096135;28;20051;-77
2024/01/25 05:33:42;;;;;;;40.53;22.33;;;;;;;3.73;67.35;101624.03;5100743;28;20531;-78
2024/01/25 05:36:37;;;;;;;38.07;20.20;;;;;;;3.53;67.47;101621.06;5101733;28;20405;-78
2024/01/25 05:39:31;;;;;;;59.30;33.83;;;;;;;3.68;67.93;101623.97;5097274;28;20054;-78
2024/01/25 05:42:26;;;;;;;47.22;27.23;;;;;;;3.83;66.63;101625.00;5100751;28;20285;-77
2024/01/25 05:45:18;;;;;;;60.75;28.08;;;;;;;3.71;67.87;101629.66;5097188;28;20047;-78
2024/01/25 05:48:11;;;;;;;46.42;26.65;;;;;;;3.73;67.01;101634.78;5101754;28;20416;-78
2024/01/25 05:51:05;;;;;;;45.50;20.45;;;;;;;3.60;67.14;101616.34;5096231;28;20047;-77
2024/01/25 05:54:00;;;;;;;45.07;21.10;;;;;;;3.77;66.71;101636.75;5102648;28;20055;-79
2024/01/25 05:56:55;;;;;;;38.47;22.77;;;;;;;3.52;67.87;101640.94;5103667;28;20273;-78
2024/01/25 05:59:55;;;;;;;44.08;26.08;;;;;;;3.39;68.63;101637.53;5096108;28;20292;-77
2024/01/25 06:02:47;;;;;;;49.67;25.17;;;;;;;3.49;67.59;101638.75;5103281;28;20051;-76
2024/01/25 06:05:41;;;;;;;41.72;22.38;;;;;;;3.65;66.58;101633.34;5101355;28;20043;-77
2024/01/25 06:08:36;;;;;;;37.13;20.77;;;;;;;3.49;66.48;101630.69;5103481;28;20043;-77
2024/01/25 06:11:31;;;;;;;31.87;17.67;;;;;;;3.47;66.31;101638.16;5104397;28;20028;-77
2024/01/25 06:14:26;;;;;;;26.45;15.93;;;;;;;3.48;66.44;101645.16;5101120;28;20340;-78
2024/01/25 06:17:20;;;;;;;39.58;20.75;;;;;;;3.74;65.50;101652.56;5097905;28;20086;-76
2024/01/25 06:20:15;;;;;;;46.63;21.98;;;;;;;3.71;65.26;101640.41;5097875;28;20051;-76
2024/01/25 06:23:09;;;;;;;27.67;15.98;;;;;;;3.56;65.44;101634.00;5098177;28;20043;-76
2024/01/25 06:26:04;;;;;;;33.88;19.27;;;;;;;3.21;66.72;101629.69;5095433;28;20051;-74
2024/01/25 06:29:01;;;;;;;29.65;13.98;;;;;;;3.54;65.42;101649.56;5090885;28;20062;-76
2024/01/25 06:31:56;;;;;;;32.58;18.02;;;;;;;3.80;65.04;101648.91;5095716;28;20047;-74
2024/01/25 06:34:50;;;;;;;35.55;19.00;;;;;;;3.68;64.48;101648.16;5093986;28;20051;-74
2024/01/25 06:37:45;;;;;;;26.67;15.33;;;;;;;3.75;64.64;101632.69;5102603;28;20055;-77
2024/01/25 06:40:40;;;;;;;20.75;12.52;;;;;;;3.49;65.07;101652.19;5098142;28;20062;-76
2024/01/25 06:43:39;;;;;;;39.05;18.02;;;;;;;3.63;64.53;101659.66;5088412;28;20039;-77
2024/01/25 06:46:34;;;;;;;32.90;15.73;;;;;;;3.72;64.31;101665.44;5097260;28;20042;-76
2024/01/25 06:49:29;;;;;;;33.78;17.98;;;;;;;3.24;66.00;101666.84;5097157;28;20043;-76
2024/01/25 06:52:18;;;;;;;34.72;16.48;;;;;;;3.25;66.41;101663.06;5098035;28;20422;-76
2024/01/25 06:55:13;;;;;;;43.22;17.83;;;;;;;3.19;66.32;101666.75;5095629;28;20417;-77
2024/01/25 06:58:08;;;;;;;24.23;12.27;;;;;;;3.35;65.74;101659.78;5092158;28;20130;-77
2024/01/25 07:01:02;;;;;;;29.02;15.93;;;;;;;3.42;65.30;101666.59;5098060;28;20055;-76
2024/01/25 07:03:59;;;;;;;33.50;16.98;;;;;;;3.39;65.42;101667.09;5091581;28;20047;-78
2024/01/25 07:06:53;;;;;;;40.35;19.13;;;;;;;3.24;65.76;101682.97;5096431;28;20438;-78
2024/01/25 07:09:48;;;;;;;25.27;14.50;;;;;;;3.40;65.30;101675.97;5098209;28;20051;-79
2024/01/25 07:12:40;;;;;;;20.15;10.65;;;;;;;3.50;64.97;101667.25;5095525;28;20051;-77
2024/01/25 07:15:29;;;;;;;32.47;15.55;;;;;;;3.56;65.01;101680.53;5096042;28;20523;-77
2024/01/25 07:18:24;;;;;;;28.10;14.82;;;;;;;3.74;64.44;101672.22;5095300;28;20528;-77
2024/01/25 07:21:19;;;;;;;26.38;11.95;;;;;;;3.56;65.85;101668.94;5099019;28;20048;-76
2024/01/25 07:24:13;;;;;;;32.13;14.68;;;;;;;3.49;65.92;101679.06;5092836;28;20043;-77
2024/01/25 07:27:08;;;;;;;38.83;15.50;;;;;;;3.55;65.86;101672.72;5091362;28;20047;-78
2024/01/25 07:30:00;;;;;;;35.35;15.00;;;;;;;3.28;66.56;101684.09;5088219;28;20036;-76
2024/01/25 07:32:54;;;;;;;25.85;14.48;;;;;;;3.43;66.60;101672.78;5092397;28;20047;-79
2024/01/25 07:35:49;;;;;;;32.67;16.05;;;;;;;3.64;65.88;101684.69;5087522;28;20047;-77
2024/01/25 07:38:43;;;;;;;30.20;15.48;;;;;;;3.59;66.59;101687.28;5090291;28;20070;-76
2024/01/25 07:41:38;;;;;;;31.58;16.55;;;;;;;3.67;66.24;101686.88;5094389;28;20024;-76
2024/01/25 07:44:32;;;;;;;34.60;17.90;;;;;;;3.72;66.48;101697.72;5097693;28;20051;-75
2024/01/25 07:47:27;;;;;;;32.72;16.30;;;;;;;3.74;66.60;101700.97;5090914;28;20050;-77
2024/01/25 07:50:21;;;;;;;35.78;17.85;;;;;;;3.85;66.23;101690.16;5090627;28;20396;-79
2024/01/25 07:53:14;;;;;;;24.60;12.45;;;;;;;3.94;66.02;101695.91;5096325;28;20043;-79
2024/01/25 07:56:10;;;;;;;34.40;16.77;;;;;;;3.93;66.25;101702.34;5094559;28;20051;-78
2024/01/25 07:59:06;;;;;;;24.70;14.30;;;;;;;4.03;66.16;101704.38;5099612;28;20043;-78
2024/01/25 08:02:00;;;;;;;33.80;15.10;;;;;;;4.55;66.75;101691.34;5096788;28;20130;-75
2024/01/25 08:04:50;;;;;;;32.22;16.05;;;;;;;4.42;65.12;101694.41;5095505;28;20055;-75
2024/01/25 08:07:44;;;;;;;35.78;18.13;;;;;;;4.27;65.54;101693.13;5095271;28;20496;-76
2024/01/25 08:10:39;;;;;;;32.20;15.52;;;;;;;4.15;66.68;101702.41;5095450;28;20043;-78
2024/01/25 08:13:33;;;;;;;29.63;15.93;;;;;;;4.69;65.30;101684.50;5099272;28;20050;-77
2024/01/25 08:16:25;;;;;;;32.83;11.83;;;;;;;4.47;65.62;101703.34;5094818;28;20043;-76
2024/01/25 08:19:23;;;;;;;31.20;17.42;;;;;;;4.54;65.97;101705.88;5095847;28;20047;-75
2024/01/25 08:22:16;;;;;;;35.25;15.13;;;;;;;4.65;65.45;101705.75;5093984;28;20044;-76
2024/01/25 08:25:12;;;;;;;31.40;14.83;;;;;;;4.71;65.87;101698.53;5096019;28;20424;-76
2024/01/25 08:28:06;;;;;;;17.27;10.15;;;;;;;4.76;65.77;101706.69;5097985;28;20047;-75
2024/01/25 08:31:01;;;;;;;30.48;12.05;;;;;;;4.65;66.05;101719.22;5097037;28;20046;-77
2024/01/25 08:33:56;;;;;;;22.47;11.90;;;;;;;4.75;66.46;101726.59;5094659;28;20043;-77
2024/01/25 08:36:48;;;;;;;22.40;12.63;;;;;;;4.89;65.66;101716.25;5096295;28;20043;-74
2024/01/25 08:39:43;;;;;;;33.00;12.98;;;;;;;5.05;65.90;101715.34;5096830;28;20047;-78
2024/01/25 08:42:37;;;;;;;24.05;12.48;;;;;;;5.05;66.61;101709.94;5100909;28;20050;-77
2024/01/25 08:45:31;;;;;;;27.42;12.50;;;;;;;5.19;67.26;101727.34;5098114;28;20051;-77
2024/01/25 08:48:26;;;;;;;29.00;13.48;;;;;;;5.44;66.56;101734.88;5097590;28;20051;-80
2024/01/25 08:51:20;;;;;;;33.10;16.38;;;;;;;5.58;66.88;101736.09;5097110;28;20051;-78
2024/01/25 08:54:15;;;;;;;24.73;13.73;;;;;;;5.63;65.87;101728.03;5094558;28;20413;-78
2024/01/25 08:57:10;;;;;;;23.20;14.53;;;;;;;5.78;65.43;101717.38;5089734;28;20059;-76
2024/01/25 09:00:04;;;;;;;22.17;12.82;;;;;;;5.73;66.44;101725.44;5093348;28;20352;-76
2024/01/25 09:02:57;;;;;;;33.03;16.45;;;;;;;5.80;66.79;101736.78;5088341;28;20101;-76
2024/01/25 09:05:51;;;;;;;37.65;18.73;;;;;;;6.00;66.82;101726.19;5097494;28;20137;-76
2024/01/25 09:08:46;;;;;;;26.67;16.27;;;;;;;6.20;67.66;101741.69;5095081;28;20044;-77
2024/01/25 09:11:41;;;;;;;35.53;17.93;;;;;;;6.34;68.44;101728.56;5097566;28;20043;-77
2024/01/25 09:14:36;;;;;;;44.33;23.60;;;;;;;6.42;68.90;101734.28;5100807;28;20051;-76
2024/01/25 09:17:30;;;;;;;50.00;26.50;;;;;;;6.61;69.20;101739.22;5099256;28;20530;-77
2024/01/25 09:20:25;;;;;;;69.45;36.15;;;;;;;6.73;71.30;101740.63;5101520;28;20051;-80
2024/01/25 09:23:19;;;;;;;52.92;29.92;;;;;;;6.89;70.66;101730.69;5091921;28;20047;-79
2024/01/25 09:26:10;;;;;;;;;;;;;;;6.93;70.44;101739.88;5086327;28;20055;-78
2024/01/25 09:29:02;;;;;;;59.05;34.00;;;;;;;7.02;70.25;101749.09;5098466;28;19916;-78
2024/01/25 09:31:54;;;;;;;57.97;34.92;;;;;;;7.24;69.25;101748.91;5095045;28;20067;-79
2024/01/25 09:34:46;;;;;;;55.25;32.55;;;;;;;7.35;68.04;101755.97;5098208;28;20051;-79
2024/01/25 09:37:40;;;;;;;52.38;31.83;;;;;;;7.45;68.38;101752.44;5094459;28;20043;-78
2024/01/25 09:40:35;;;;;;;51.93;31.57;;;;;;;7.54;67.24;101753.53;5093793;28;20047;-79
2024/01/25 09:43:25;;;;;;;49.85;30.48;;;;;;;7.66;67.87;101741.38;5098234;28;20047;-78
2024/01/25 09:46:20;;;;;;;55.95;33.78;;;;;;;7.77;67.56;101757.63;5095925;28;20047;-77
2024/01/25 09:49:16;;;;;;;44.17;26.45;;;;;;;7.82;65.99;101763.84;5093827;28;20740;-78
2024/01/25 09:52:08;;;;;;;;;;;;;;;7.89;65.99;101763.56;5097806;28;20539;-76
2024/01/25 09:55:02;;;;;;;52.28;31.67;;;;;;;8.00;65.44;101774.13;5094708;28;19915;-77
2024/01/25 09:58:01;;;;;;;56.22;30.75;;;;;;;8.03;65.29;101778.19;5096349;28;20048;-78
2024/01/25 10:01:01;;;;;;;52.03;29.13;;;;;;;8.14;64.94;101780.63;5094803;28;20047;-78
2024/01/25 10:03:55;;;;;;;48.60;28.73;;;;;;;8.22;64.29;101770.31;5098791;28;20046;-77
2024/01/25 10:06:50;;;;;;;45.87;30.40;;;;;;;8.34;64.50;101760.81;5095796;28;20051;-77
2024/01/25 10:09:48;;;;;;;40.80;26.02;;;;;;;8.79;63.35;101770.72;5094375;28;20047;-78
2024/01/25 10:12:42;;;;;;;48.70;28.33;;;;;;;9.07;62.00;101779.28;5093609;28;20047;-78
2024/01/25 10:15:38;;;;;;;43.40;29.80;;;;;;;9.34;61.33;101782.41;5093302;28;20035;-78
2024/01/25 10:18:32;;;;;;;32.80;19.90;;;;;;;9.43;60.66;101778.81;5094159;28;20047;-79
2024/01/25 10:21:27;;;;;;;56.65;28.58;;;;;;;9.46;60.90;101777.44;5096530;28;20050;-79
2024/01/25 10:24:21;;;;;;;47.17;28.27;;;;;;;9.69;60.22;101773.22;5094077;28;20046;-79
2024/01/25 10:27:21;;;;;;;42.33;26.63;;;;;;;9.86;59.23;101770.88;5095065;28;20051;-78
2024/01/25 10:30:16;;;;;;;41.15;26.92;;;;;;;10.05;58.55;101760.16;5094934;28;20048;-79
2024/01/25 10:33:11;;;;;;;46.58;26.23;;;;;;;10.33;57.95;101780.28;5098427;28;20429;-79
2024/01/25 10:36:05;;;;;;;42.97;26.70;;;;;;;10.59;57.28;101774.28;5095711;28;20040;-79
2024/01/25 10:38:57;;;;;;;44.92;27.52;;;;;;;10.70;55.91;101767.63;5078408;28;20432;-78
2024/01/25 10:41:50;;;;;;;39.42;23.85;;;;;;;11.08;55.61;101771.22;5097412;28;20040;-78
2024/01/25 10:44:44;;;;;;;39.25;24.85;;;;;;;11.10;55.51;101782.66;5091328;28;20299;-79
2024/01/25 10:47:37;;;;;;;39.00;24.60;;;;;;;10.98;54.93;101776.81;5089913;28;20036;-78
2024/01/25 10:50:32;;;;;;;45.25;25.63;;;;;;;11.24;55.41;101768.31;5095828;28;20044;-77
2024/01/25 10:53:26;;;;;;;27.10;17.40;;;;;;;11.85;52.16;101765.50;5093208;28;20513;-77
2024/01/25 10:56:21;;;;;;;36.88;21.58;;;;;;;11.84;51.45;101753.78;5098616;28;20044;-78
2024/01/25 10:59:12;;;;;;;29.77;18.83;;;;;;;11.92;52.11;101753.13;5095393;28;20036;-80
2024/01/25 11:02:07;;;;;;;46.13;24.63;;;;;;;12.11;52.54;101750.31;5092996;28;20036;-79
2024/01/25 11:05:03;;;;;;;36.43;23.90;;;;;;;12.22;51.73;101750.94;5088677;28;20040;-80
2024/01/25 11:07:58;;;;;;;41.15;25.15;;;;;;;12.14;52.32;101757.09;5089788;28;20504;-78
2024/01/25 11:10:54;;;;;;;33.55;19.95;;;;;;;12.18;51.97;101758.13;5097849;28;20047;-78
2024/01/25 11:13:46;;;;;;;39.78;25.10;;;;;;;12.44;51.55;101764.72;5090609;28;20032;-78
2024/01/25 11:16:42;;;;;;;41.08;25.60;;;;;;;12.67;50.89;101760.97;5087597;28;20032;-78
2024/01/25 11:19:37;;;;;;;39.60;23.73;;;;;;;12.61;51.36;101756.72;5093476;28;20036;-78
2024/01/25 11:22:36;;;;;;;35.88;20.80;;;;;;;12.51;50.77;101751.47;5090045;28;20032;-77
2024/01/25 11:25:31;;;;;;;36.47;21.67;;;;;;;12.85;49.77;101762.78;5085962;28;20044;-77
2024/01/25 11:28:23;;;;;;;35.47;23.75;;;;;;;12.97;49.40;101770.47;5090911;28;20040;-78
2024/01/25 11:31:15;;;;;;;34.40;21.73;;;;;;;13.24;48.90;101764.19;5081587;28;20044;-78
2024/01/25 11:34:13;;;;;;;36.30;22.88;;;;;;;13.31;48.50;101764.56;5086383;28;20678;-78
2024/01/25 11:37:07;;;;;;;38.45;23.30;;;;;;;13.31;49.07;101763.78;5090819;28;20048;-76
2024/01/25 11:40:07;;;;;;;41.88;24.60;;;;;;;13.38;48.14;101762.22;5092811;28;20036;-78
2024/01/25 11:43:02;;;;;;;36.75;23.13;;;;;;;13.14;48.37;101765.22;5094018;28;20040;-77
2024/01/25 11:45:56;;;;;;;35.53;22.07;;;;;;;13.47;48.09;101763.09;5091231;28;20043;-76
2024/01/25 11:48:51;;;;;;;36.20;25.03;;;;;;;13.58;47.60;101774.59;5095069;28;20623;-77
2024/01/25 11:51:45;;;;;;;37.00;19.43;;;;;;;13.91;46.25;101769.72;5087481;28;20400;-77
2024/01/25 11:54:40;;;;;;;26.57;18.50;;;;;;;13.84;46.59;101761.94;5095139;28;20031;-77
2024/01/25 11:57:34;;;;;;;29.90;17.50;;;;;;;13.81;46.68;101772.69;5090972;28;20266;-78
2024/01/25 12:00:28;;;;;;;43.30;24.30;;;;;;;13.86;46.00;101775.31;5096121;28;20417;-78
2024/01/25 12:03:21;;;;;;;30.17;20.13;;;;;;;13.96;46.15;101764.13;5094832;28;20036;-76
2024/01/25 12:06:16;;;;;;;39.65;24.05;;;;;;;14.22;45.78;101767.00;5083306;28;20039;-77
2024/01/25 12:09:18;;;;;;;37.35;23.42;;;;;;;14.34;45.76;101759.81;5092201;28;20044;-78
2024/01/25 12:12:13;;;;;;;50.67;25.27;;;;;;;14.39;45.39;101764.38;5089956;28;20610;-76
2024/01/25 12:15:12;;;;;;;29.63;20.75;;;;;;;14.47;45.30;101763.63;5090836;28;20040;-78
2024/01/25 12:18:07;;;;;;;36.40;24.20;;;;;;;14.44;45.49;101765.03;5085581;28;20047;-79
2024/01/25 12:20:59;;;;;;;31.67;21.40;;;;;;;14.51;45.02;101759.13;5086307;28;20212;-80
2024/01/25 12:23:56;;;;;;;41.72;25.38;;;;;;;14.28;46.14;101760.25;5089437;28;20039;-78
2024/01/25 12:26:51;;;;;;;42.20;25.40;;;;;;;14.55;45.26;101755.44;5092596;28;20505;-76
2024/01/25 12:29:41;;;;;;;;;;;;;;;14.75;45.30;101762.25;5096909;28;20036;-78
2024/01/25 12:32:35;;;;;;;37.42;24.60;;;;;;;14.74;44.63;101751.63;5094569;28;19920;-77
2024/01/25 12:35:34;;;;;;;37.33;25.63;;;;;;;14.47;44.80;101750.75;5088744;28;20031;-77
2024/01/25 12:38:29;;;;;;;36.10;25.00;;;;;;;14.59;44.74;101750.13;5092947;28;20040;-78
2024/01/25 12:41:23;;;;;;;39.07;24.30;;;;;;;14.95;43.85;101752.63;5086472;28;20048;-78
2024/01/25 12:44:18;;;;;;;39.70;24.60;;;;;;;14.91;44.28;101746.19;5090238;28;20040;-76
2024/01/25 12:47:12;;;;;;;43.13;25.20;;;;;;;14.97;44.00;101745.72;5088734;28;20412;-78
2024/01/25 12:50:22;;;;;;;39.17;24.02;;;;;;;15.01;43.62;101743.16;5087641;28;20432;-76
2024/01/25 12:53:20;;;;;;;37.67;23.90;;;;;;;14.87;44.57;101751.50;5094386;28;20044;-78
2024/01/25 12:56:14;;;;;;;35.83;23.80;;;;;;;15.06;43.75;101743.00;5091422;28;20044;-77
2024/01/25 12:59:09;;;;;;;28.93;19.43;;;;;;;14.95;43.79;101737.00;5096030;28;20044;-77
2024/01/25 13:02:03;;;;;;;37.73;25.73;;;;;;;14.71;43.68;101735.84;5092728;28;20286;-78
2024/01/25 13:04:58;;;;;;;40.83;26.30;;;;;;;14.95;43.17;101728.78;5089867;28;20509;-77
2024/01/25 13:07:50;;;;;;;37.45;25.08;;;;;;;15.02;43.66;101720.13;5093887;28;20040;-78
2024/01/25 13:10:37;;;;;;;38.08;24.15;;;;;;;15.25;43.29;101724.31;5091274;28;20036;-77
2024/01/25 13:13:32;;;;;;;35.95;24.63;;;;;;;14.85;43.74;101726.38;5094904;28;20036;-79
2024/01/25 13:16:26;;;;;;;28.58;18.67;;;;;;;15.34;42.41;101730.59;5093550;28;20036;-79
2024/01/25 13:19:21;;;;;;;27.10;17.48;;;;;;;15.14;42.50;101717.53;5091359;28;20513;-79
2024/01/25 13:22:16;;;;;;;35.67;23.35;;;;;;;14.96;43.35;101716.72;5092608;28;20040;-79